createdAt,value
2023-02-03T00:00:28.775Z,6.63
2023-02-03T00:01:30.481Z,6.67
2023-02-03T00:02:32.122Z,6.71
2023-02-03T00:03:33.869Z,6.36
2023-02-03T00:04:35.735Z,6.08
2023-02-03T00:05:37.521Z,6.56
2023-02-03T00:06:39.904Z,5.93
2023-02-03T00:07:42.038Z,6.61
2023-02-03T00:08:43.799Z,6.35
2023-02-03T00:09:47.916Z,6.62
2023-02-03T00:10:49.646Z,6.59
2023-02-03T00:11:51.434Z,5.84
2023-02-03T00:12:53.946Z,6.72
2023-02-03T00:13:55.723Z,6.63
2023-02-03T00:14:57.446Z,6.59
2023-02-03T00:16:01.434Z,6.30
2023-02-03T00:17:03.267Z,6.52
2023-02-03T00:18:04.990Z,5.50
2023-02-03T00:19:06.958Z,6.44
2023-02-03T00:20:10.146Z,6.61
2023-02-03T00:21:11.870Z,6.34
2023-02-03T00:22:13.545Z,6.02
2023-02-03T00:23:15.150Z,6.34
2023-02-03T00:24:18.901Z,6.01
2023-02-03T00:25:21.564Z,6.43
2023-02-03T00:26:25.127Z,6.69
2023-02-03T00:27:26.734Z,6.19
2023-02-03T00:28:31.833Z,6.85
2023-02-03T00:29:33.471Z,6.77
2023-02-03T00:30:36.196Z,6.31
2023-02-03T00:31:38.202Z,6.64
2023-02-03T00:32:40.131Z,6.38
2023-02-03T00:33:41.836Z,6.68
2023-02-03T00:34:43.516Z,6.00
2023-02-03T00:35:45.109Z,6.50
2023-02-03T00:36:48.211Z,6.50
2023-02-03T00:37:54.435Z,6.91
2023-02-03T00:38:56.139Z,6.97
2023-02-03T00:39:57.802Z,6.80
2023-02-03T00:40:59.430Z,6.99
2023-02-03T00:42:01.122Z,6.67
2023-02-03T00:43:02.772Z,6.61
2023-02-03T00:44:04.741Z,6.76
2023-02-03T00:45:06.834Z,6.90
2023-02-03T00:46:08.681Z,6.78
2023-02-03T00:47:10.554Z,6.98
2023-02-03T00:48:12.422Z,7.00
2023-02-03T00:49:14.032Z,6.73
2023-02-03T00:50:16.213Z,6.74
2023-02-03T00:51:17.927Z,6.93
2023-02-03T00:52:19.605Z,7.00
2023-02-03T00:53:21.363Z,6.82
2023-02-03T00:54:25.944Z,7.04
2023-02-03T00:55:27.835Z,6.79
2023-02-03T00:56:29.454Z,6.90
2023-02-03T00:57:31.132Z,6.48
2023-02-03T00:58:32.687Z,7.07
2023-02-03T00:59:34.392Z,6.88
2023-02-03T01:00:36.127Z,6.95
2023-02-03T01:01:38.184Z,7.15
2023-02-03T01:02:39.963Z,6.82
2023-02-03T01:03:41.691Z,6.36
2023-02-03T01:04:44.087Z,6.16
2023-02-03T01:05:45.662Z,7.11
2023-02-03T01:06:47.570Z,6.95
2023-02-03T01:07:49.215Z,6.98
2023-02-03T01:08:51.008Z,7.04
2023-02-03T01:09:52.646Z,6.82
2023-02-03T01:10:54.272Z,7.24
2023-02-03T01:11:55.925Z,6.95
2023-02-03T01:12:57.699Z,7.04
2023-02-03T01:14:01.765Z,7.25
2023-02-03T01:15:04.224Z,6.98
2023-02-03T01:16:14.440Z,7.03
2023-02-03T01:17:16.234Z,6.38
2023-02-03T01:18:17.989Z,6.92
2023-02-03T01:19:19.669Z,6.53
2023-02-03T01:20:21.694Z,7.25
2023-02-03T01:21:25.940Z,7.21
2023-02-03T01:22:30.284Z,7.16
2023-02-03T01:23:31.871Z,7.17
2023-02-03T01:24:33.494Z,6.46
2023-02-03T01:25:36.342Z,6.98
2023-02-03T01:26:37.884Z,7.15
2023-02-03T01:27:39.485Z,7.27
2023-02-03T01:28:41.692Z,7.38
2023-02-03T01:29:43.227Z,7.16
2023-02-03T01:30:44.928Z,7.07
2023-02-03T01:31:46.628Z,7.16
2023-02-03T01:32:48.547Z,6.94
2023-02-03T01:33:52.411Z,6.58
2023-02-03T01:34:54.165Z,7.17
2023-02-03T01:35:55.758Z,6.96
2023-02-03T01:36:57.437Z,7.02
2023-02-03T01:37:59.755Z,6.97
2023-02-03T01:39:02.014Z,7.03
2023-02-03T01:40:04.310Z,6.90
2023-02-03T01:41:09.789Z,7.17
2023-02-03T01:42:15.692Z,7.26
2023-02-03T01:43:35.109Z,6.75
2023-02-03T01:44:41.431Z,7.13
2023-02-03T01:45:43.215Z,7.12
2023-02-03T01:46:49.560Z,7.07
2023-02-03T01:47:57.544Z,7.17
2023-02-03T01:49:11.762Z,7.14
2023-02-03T01:50:32.723Z,7.18
2023-02-03T01:51:35.756Z,6.98
2023-02-03T01:52:41.155Z,6.85
2023-02-03T01:53:43.167Z,6.90
2023-02-03T01:54:47.263Z,6.99
2023-02-03T01:55:50.645Z,6.95
2023-02-03T01:57:01.097Z,6.93
2023-02-03T01:58:10.400Z,6.81
2023-02-03T01:59:13.088Z,6.53
2023-02-03T02:00:15.213Z,6.78
2023-02-03T02:01:19.539Z,6.64
2023-02-03T02:02:21.998Z,6.58
2023-02-03T02:03:28.704Z,6.23
2023-02-03T02:04:39.746Z,6.65
2023-02-03T02:05:48.310Z,6.68
2023-02-03T02:06:51.760Z,6.88
2023-02-03T02:07:54.940Z,6.64
2023-02-03T02:09:00.621Z,6.82
2023-02-03T02:10:02.644Z,6.62
2023-02-03T02:11:05.253Z,6.12
2023-02-03T02:12:07.051Z,6.44
2023-02-03T02:13:08.871Z,6.59
2023-02-03T02:14:11.003Z,6.61
2023-02-03T02:15:12.875Z,6.64
2023-02-03T02:16:26.325Z,6.61
2023-02-03T02:18:05.002Z,6.58
2023-02-03T02:19:38.002Z,6.06
2023-02-03T02:20:54.738Z,6.51
2023-02-03T02:22:28.718Z,6.43
2023-02-03T02:23:36.174Z,6.56
2023-02-03T02:25:14.045Z,6.61
2023-02-03T02:26:24.400Z,6.66
2023-02-03T02:27:59.814Z,6.66
2023-02-03T02:29:50.682Z,6.33
2023-02-03T02:30:58.417Z,6.56
2023-02-03T02:32:10.490Z,6.62
2023-02-03T02:33:28.989Z,6.44
2023-02-03T02:34:30.501Z,6.75
2023-02-03T02:35:32.097Z,6.77
2023-02-03T02:36:50.713Z,6.29
2023-02-03T02:38:03.269Z,6.66
2023-02-03T02:39:45.807Z,6.78
2023-02-03T02:40:56.470Z,6.82
2023-02-03T02:42:21.109Z,6.86
2023-02-03T02:43:34.961Z,6.81
2023-02-03T02:44:44.205Z,6.74
2023-02-03T02:45:52.195Z,6.78
2023-02-03T02:46:59.201Z,6.51
2023-02-03T02:48:10.507Z,6.64
2023-02-03T02:49:33.356Z,6.80
2023-02-03T02:50:41.966Z,6.55
2023-02-03T02:51:45.437Z,6.19
2023-02-03T02:52:49.968Z,6.61
2023-02-03T02:53:58.959Z,5.68
2023-02-03T02:55:07.900Z,6.78
2023-02-03T02:56:15.537Z,6.57
2023-02-03T02:57:20.181Z,6.74
2023-02-03T02:58:23.498Z,6.94
2023-02-03T02:59:27.553Z,7.02
2023-02-03T03:00:31.642Z,6.68
2023-02-03T03:01:33.709Z,6.85
2023-02-03T03:02:36.828Z,7.06
2023-02-03T03:03:40.669Z,6.89
2023-02-03T03:04:47.393Z,6.23
2023-02-03T03:05:53.943Z,6.93
2023-02-03T03:07:27.258Z,6.89
2023-02-03T03:08:41.934Z,6.83
2023-02-03T03:09:50.084Z,6.89
2023-02-03T03:10:53.800Z,7.04
2023-02-03T03:12:02.723Z,7.03
2023-02-03T03:13:08.160Z,6.99
2023-02-03T03:14:11.987Z,6.26
2023-02-03T03:15:22.363Z,6.84
2023-02-03T03:16:26.949Z,6.89
2023-02-03T03:17:33.397Z,6.85
2023-02-03T03:18:44.477Z,6.80
2023-02-03T03:19:53.015Z,6.57
2023-02-03T03:20:57.394Z,6.98
2023-02-03T03:22:04.482Z,6.78
2023-02-03T03:23:09.475Z,6.76
2023-02-03T03:24:16.160Z,6.73
2023-02-03T03:25:21.520Z,6.78
2023-02-03T03:26:35.973Z,6.84
2023-02-03T03:27:42.084Z,6.51
2023-02-03T03:28:52.913Z,6.60
2023-02-03T03:30:02.567Z,6.91
2023-02-03T03:31:04.597Z,6.12
2023-02-03T03:32:06.787Z,6.22
2023-02-03T03:33:09.866Z,6.70
2023-02-03T03:34:13.381Z,6.80
2023-02-03T03:35:15.967Z,6.31
2023-02-03T03:36:20.729Z,7.07
2023-02-03T03:37:38.280Z,7.04
2023-02-03T03:38:45.556Z,6.91
2023-02-03T03:39:47.318Z,7.00
2023-02-03T03:41:02.034Z,6.99
2023-02-03T03:42:15.622Z,7.00
2023-02-03T03:43:21.647Z,6.98
2023-02-03T03:44:28.377Z,6.69
2023-02-03T03:45:41.152Z,7.00
2023-02-03T03:46:56.005Z,6.84
2023-02-03T03:48:00.531Z,7.03
2023-02-03T03:49:05.070Z,6.98
2023-02-03T03:50:12.410Z,6.81
2023-02-03T03:51:26.750Z,6.89
2023-02-03T03:52:35.130Z,6.96
2023-02-03T03:53:40.729Z,6.94
2023-02-03T03:54:43.274Z,6.05
2023-02-03T03:55:48.870Z,7.00
2023-02-03T03:56:54.722Z,7.04
2023-02-03T03:58:04.133Z,7.04
2023-02-03T03:59:11.351Z,7.14
2023-02-03T04:00:17.733Z,7.07
2023-02-03T04:01:20.779Z,7.19
2023-02-03T04:02:23.553Z,7.23
2023-02-03T04:03:48.321Z,6.74
2023-02-03T04:04:50.842Z,6.98
2023-02-03T04:05:52.439Z,6.66
2023-02-03T04:06:54.956Z,6.91
2023-02-03T04:07:56.561Z,6.76
2023-02-03T04:08:58.166Z,7.10
2023-02-03T04:10:00.747Z,6.87
2023-02-03T04:11:02.372Z,7.03
2023-02-03T04:12:06.443Z,5.76
2023-02-03T04:13:09.512Z,6.91
2023-02-03T04:14:11.049Z,6.01
2023-02-03T04:15:12.709Z,7.15
2023-02-03T04:16:14.396Z,6.80
2023-02-03T04:17:16.072Z,7.09
2023-02-03T04:18:17.922Z,6.98
2023-02-03T04:19:19.622Z,6.86
2023-02-03T04:20:21.287Z,7.04
2023-02-03T04:21:23.119Z,7.12
2023-02-03T04:22:24.943Z,6.81
2023-02-03T04:23:26.624Z,6.35
2023-02-03T04:24:28.316Z,6.83
2023-02-03T04:25:29.975Z,6.69
2023-02-03T04:26:31.747Z,6.67
2023-02-03T04:27:34.800Z,6.89
2023-02-03T04:28:36.487Z,7.07
2023-02-03T04:29:38.133Z,6.25
2023-02-03T04:30:39.769Z,6.59
2023-02-03T04:31:41.539Z,6.88
2023-02-03T04:32:43.225Z,7.11
2023-02-03T04:33:45.179Z,6.99
2023-02-03T04:34:46.905Z,7.25
2023-02-03T04:35:48.579Z,7.00
2023-02-03T04:36:50.164Z,6.51
2023-02-03T04:37:51.886Z,5.72
2023-02-03T04:38:53.637Z,7.19
2023-02-03T04:39:58.219Z,7.18
2023-02-03T04:40:59.751Z,7.15
2023-02-03T04:42:01.482Z,7.03
2023-02-03T04:43:07.978Z,7.10
2023-02-03T04:44:09.770Z,7.11
2023-02-03T04:45:12.524Z,6.81
2023-02-03T04:46:14.616Z,6.75
2023-02-03T04:47:17.253Z,6.96
2023-02-03T04:48:18.875Z,7.00
2023-02-03T04:49:20.855Z,6.44
2023-02-03T04:50:22.530Z,6.35
2023-02-03T04:51:24.169Z,7.04
2023-02-03T04:52:26.095Z,7.07
2023-02-03T04:53:27.661Z,6.94
2023-02-03T04:54:29.354Z,7.14
2023-02-03T04:55:31.023Z,6.64
2023-02-03T04:56:32.628Z,6.38
2023-02-03T04:57:34.699Z,6.65
2023-02-03T04:58:37.587Z,7.18
2023-02-03T04:59:39.129Z,7.13
2023-02-03T05:00:41.069Z,7.11
2023-02-03T05:01:42.854Z,7.05
2023-02-03T05:02:44.449Z,6.74
2023-02-03T05:03:46.151Z,7.25
2023-02-03T05:04:47.816Z,6.60
2023-02-03T05:05:50.607Z,7.24
2023-02-03T05:06:52.204Z,6.98
2023-02-03T05:07:53.883Z,7.21
2023-02-03T05:08:55.831Z,6.49
2023-02-03T05:09:57.541Z,7.21
2023-02-03T05:11:01.908Z,7.23
2023-02-03T05:12:04.126Z,7.25
2023-02-03T05:13:05.831Z,6.84
2023-02-03T05:14:07.531Z,7.33
2023-02-03T05:15:09.557Z,7.34
2023-02-03T05:16:11.269Z,6.20
2023-02-03T05:17:13.176Z,7.16
2023-02-03T05:18:14.942Z,6.72
2023-02-03T05:19:16.548Z,7.31
2023-02-03T05:20:18.312Z,6.89
2023-02-03T05:21:20.086Z,7.15
2023-02-03T05:22:22.575Z,6.57
2023-02-03T05:23:24.204Z,6.53
2023-02-03T05:24:26.086Z,6.40
2023-02-03T05:25:28.721Z,6.77
2023-02-03T05:26:30.431Z,6.98
2023-02-03T05:27:32.047Z,7.15
2023-02-03T05:28:33.880Z,7.34
2023-02-03T05:29:35.678Z,7.09
2023-02-03T05:30:37.285Z,7.22
2023-02-03T05:31:39.077Z,6.75
2023-02-03T05:32:40.802Z,7.05
2023-02-03T05:33:42.518Z,7.02
2023-02-03T05:34:44.148Z,7.05
2023-02-03T05:35:45.833Z,7.26
2023-02-03T05:36:47.463Z,6.99
2023-02-03T05:37:49.170Z,7.00
2023-02-03T05:38:50.967Z,6.89
2023-02-03T05:39:52.728Z,7.15
2023-02-03T05:41:13.009Z,6.71
2023-02-03T05:42:14.608Z,7.07
2023-02-03T05:43:16.212Z,7.04
2023-02-03T05:44:20.747Z,7.00
2023-02-03T05:45:22.581Z,6.38
2023-02-03T05:46:24.561Z,6.57
2023-02-03T05:47:26.156Z,6.72
2023-02-03T05:48:27.879Z,7.14
2023-02-03T05:49:29.518Z,6.57
2023-02-03T05:50:35.749Z,6.59
2023-02-03T05:51:39.611Z,7.33
2023-02-03T05:52:41.314Z,6.34
2023-02-03T05:53:43.019Z,6.60
2023-02-03T05:54:44.720Z,7.30
2023-02-03T05:55:46.415Z,7.07
2023-02-03T05:56:48.007Z,6.69
2023-02-03T05:57:49.577Z,7.32
2023-02-03T05:58:54.576Z,6.88
2023-02-03T05:59:56.237Z,7.43
2023-02-03T06:00:57.899Z,6.78
2023-02-03T06:01:59.503Z,7.26
2023-02-03T06:03:02.829Z,7.55
2023-02-03T06:04:05.561Z,7.21
2023-02-03T06:05:08.340Z,6.75
2023-02-03T06:06:10.002Z,7.42
2023-02-03T06:07:11.635Z,7.39
2023-02-03T06:08:13.330Z,7.31
2023-02-03T06:09:15.216Z,7.01
2023-02-03T06:10:17.412Z,6.82
2023-02-03T06:11:19.270Z,6.67
2023-02-03T06:12:20.935Z,6.63
2023-02-03T06:13:22.710Z,6.28
2023-02-03T06:14:24.288Z,7.39
2023-02-03T06:15:26.093Z,7.21
2023-02-03T06:16:28.820Z,7.39
2023-02-03T06:17:31.050Z,7.13
2023-02-03T06:18:32.691Z,6.59
2023-02-03T06:19:34.931Z,6.70
2023-02-03T06:20:36.668Z,6.75
2023-02-03T06:21:38.411Z,6.96
2023-02-03T06:22:40.415Z,6.48
2023-02-03T06:23:42.307Z,6.35
2023-02-03T06:24:46.590Z,7.19
2023-02-03T06:25:49.252Z,7.16
2023-02-03T06:26:50.893Z,6.95
2023-02-03T06:27:52.723Z,6.25
2023-02-03T06:28:54.373Z,6.14
2023-02-03T06:29:56.429Z,6.48
2023-02-03T06:30:58.225Z,6.58
2023-02-03T06:32:00.270Z,6.48
2023-02-03T06:33:02.312Z,6.34
2023-02-03T06:34:04.020Z,6.30
2023-02-03T06:35:08.354Z,6.63
2023-02-03T06:36:10.240Z,6.85
2023-02-03T06:37:11.903Z,6.50
2023-02-03T06:38:13.702Z,6.79
2023-02-03T06:39:15.853Z,7.01
2023-02-03T06:40:18.864Z,6.90
2023-02-03T06:41:20.393Z,6.76
2023-02-03T06:42:22.241Z,6.22
2023-02-03T06:43:23.952Z,6.12
2023-02-03T06:44:25.652Z,6.76
2023-02-03T06:45:27.603Z,6.27
2023-02-03T06:46:30.448Z,6.28
2023-02-03T06:47:32.286Z,6.15
2023-02-03T06:48:34.138Z,6.54
2023-02-03T06:49:36.711Z,6.31
2023-02-03T06:50:38.603Z,6.03
2023-02-03T06:51:40.208Z,6.14
2023-02-03T06:52:42.231Z,6.71
2023-02-03T06:53:43.883Z,6.71
2023-02-03T06:54:45.619Z,5.82
2023-02-03T06:55:48.196Z,6.78
2023-02-03T06:56:50.048Z,5.59
2023-02-03T06:57:51.948Z,6.76
2023-02-03T06:58:53.812Z,5.63
2023-02-03T06:59:55.515Z,6.86
2023-02-03T07:00:57.439Z,6.26
2023-02-03T07:02:00.383Z,6.50
2023-02-03T07:03:03.064Z,6.83
2023-02-03T07:04:05.278Z,6.47
2023-02-03T07:05:07.565Z,6.28
2023-02-03T07:06:09.263Z,6.81
2023-02-03T07:07:13.939Z,6.68
2023-02-03T07:08:15.712Z,6.45
2023-02-03T07:09:17.518Z,6.60
2023-02-03T07:10:19.744Z,6.78
2023-02-03T07:11:21.615Z,6.95
2023-02-03T07:12:23.259Z,6.86
2023-02-03T07:13:25.141Z,6.30
2023-02-03T07:14:26.942Z,6.74
2023-02-03T07:15:31.869Z,6.73
2023-02-03T07:16:34.488Z,7.06
2023-02-03T07:17:36.559Z,7.07
2023-02-03T07:18:47.775Z,6.97
2023-02-03T07:19:50.395Z,6.64
2023-02-03T07:20:54.935Z,6.76
2023-02-03T07:21:56.745Z,6.58
2023-02-03T07:22:58.758Z,6.91
2023-02-03T07:24:00.365Z,6.21
2023-02-03T07:25:02.248Z,6.98
2023-02-03T07:26:05.838Z,7.09
2023-02-03T07:27:07.565Z,7.05
2023-02-03T07:28:09.506Z,7.07
2023-02-03T07:29:11.847Z,6.81
2023-02-03T07:30:14.155Z,6.97
2023-02-03T07:31:16.370Z,7.05
2023-02-03T07:32:18.074Z,6.69
2023-02-03T07:33:24.304Z,6.19
2023-02-03T07:34:26.431Z,7.06
2023-02-03T07:35:28.009Z,6.95
2023-02-03T07:36:30.291Z,6.89
2023-02-03T07:37:34.506Z,6.91
2023-02-03T07:38:38.055Z,6.85
2023-02-03T07:39:39.759Z,6.80
2023-02-03T07:40:41.795Z,6.80
2023-02-03T07:41:43.659Z,6.43
2023-02-03T07:42:47.425Z,7.14
2023-02-03T07:43:49.125Z,6.83
2023-02-03T07:44:50.819Z,7.06
2023-02-03T07:45:52.497Z,6.83
2023-02-03T07:46:54.308Z,6.96
2023-02-03T07:47:56.780Z,7.12
2023-02-03T07:48:58.537Z,6.33
2023-02-03T07:50:00.333Z,5.95
2023-02-03T07:51:02.119Z,6.91
2023-02-03T07:52:04.094Z,6.39
2023-02-03T07:53:06.503Z,6.66
2023-02-03T07:54:08.180Z,6.38
2023-02-03T07:55:10.296Z,7.07
2023-02-03T07:56:12.647Z,6.98
2023-02-03T07:57:14.263Z,7.06
2023-02-03T07:58:17.147Z,5.80
2023-02-03T07:59:19.021Z,7.15
2023-02-03T08:00:21.184Z,7.13
2023-02-03T08:01:23.816Z,5.47
2023-02-03T08:02:25.625Z,5.72
2023-02-03T08:03:27.331Z,6.99
2023-02-03T08:04:28.980Z,7.22
2023-02-03T08:05:30.723Z,6.97
2023-02-03T08:06:33.211Z,5.97
2023-02-03T08:07:35.446Z,7.13
2023-02-03T08:08:37.275Z,7.15
2023-02-03T08:09:39.150Z,7.12
2023-02-03T08:10:40.905Z,6.87
2023-02-03T08:11:42.671Z,7.08
2023-02-03T08:12:45.393Z,6.11
2023-02-03T08:13:47.169Z,6.99
2023-02-03T08:14:48.869Z,6.62
2023-02-03T08:15:50.589Z,7.06
2023-02-03T08:16:52.274Z,7.30
2023-02-03T08:17:54.026Z,7.26
2023-02-03T08:18:55.687Z,6.53
2023-02-03T08:19:57.772Z,7.34
2023-02-03T08:21:02.702Z,6.88
2023-02-03T08:22:04.537Z,6.80
2023-02-03T08:23:06.628Z,7.05
2023-02-03T08:24:09.104Z,6.80
2023-02-03T08:25:11.549Z,7.39
2023-02-03T08:26:13.416Z,7.40
2023-02-03T08:27:17.419Z,7.38
2023-02-03T08:28:19.942Z,7.44
2023-02-03T08:29:21.833Z,7.38
2023-02-03T08:30:24.030Z,7.32
2023-02-03T08:31:25.944Z,6.59
2023-02-03T08:32:27.722Z,6.66
2023-02-03T08:33:29.544Z,6.94
2023-02-03T08:34:31.618Z,6.47
2023-02-03T08:35:33.849Z,6.61
2023-02-03T08:36:39.307Z,7.13
2023-02-03T08:37:41.328Z,7.08
2023-02-03T08:38:44.516Z,6.74
2023-02-03T08:39:47.086Z,6.31
2023-02-03T08:40:48.907Z,6.89
2023-02-03T08:41:50.674Z,7.03
2023-02-03T08:42:52.640Z,6.92
2023-02-03T08:43:55.811Z,7.03
2023-02-03T08:44:57.610Z,6.91
2023-02-03T08:46:03.633Z,7.04
2023-02-03T08:47:07.187Z,6.29
2023-02-03T08:48:08.939Z,6.76
2023-02-03T08:49:11.855Z,6.53
2023-02-03T08:50:13.743Z,7.01
2023-02-03T08:51:17.081Z,6.97
2023-02-03T08:52:19.285Z,6.69
2023-02-03T08:53:21.137Z,6.17
2023-02-03T08:54:23.394Z,6.96
2023-02-03T08:55:25.256Z,6.66
2023-02-03T08:56:28.057Z,6.94
2023-02-03T08:57:37.085Z,7.00
2023-02-03T08:58:41.810Z,6.70
2023-02-03T08:59:44.108Z,7.04
2023-02-03T09:00:49.058Z,6.27
2023-02-03T09:01:52.609Z,6.03
2023-02-03T09:02:54.268Z,6.56
2023-02-03T09:03:56.916Z,6.52
2023-02-03T09:04:58.686Z,6.72
2023-02-03T09:06:00.775Z,6.96
2023-02-03T09:07:04.841Z,6.57
2023-02-03T09:08:06.803Z,6.55
2023-02-03T09:09:08.569Z,6.95
2023-02-03T09:10:10.792Z,6.84
2023-02-03T09:11:15.152Z,6.96
2023-02-03T09:12:17.512Z,6.41
2023-02-03T09:13:21.600Z,6.51
2023-02-03T09:14:24.005Z,6.98
2023-02-03T09:15:28.272Z,7.01
2023-02-03T09:16:33.736Z,6.53
2023-02-03T09:17:36.022Z,6.86
2023-02-03T09:18:40.428Z,6.40
2023-02-03T09:19:42.491Z,7.37
2023-02-03T09:20:44.275Z,6.69
2023-02-03T09:21:53.186Z,7.48
2023-02-03T09:22:55.662Z,6.09
2023-02-03T09:24:01.203Z,7.27
2023-02-03T09:25:08.079Z,5.96
2023-02-03T09:26:12.850Z,6.43
2023-02-03T09:27:15.369Z,7.28
2023-02-03T09:28:17.334Z,7.18
2023-02-03T09:29:20.329Z,7.46
2023-02-03T09:30:22.179Z,7.56
2023-02-03T09:31:23.996Z,7.63
2023-02-03T09:32:26.007Z,7.06
2023-02-03T09:33:28.663Z,7.18
2023-02-03T09:34:30.481Z,7.68
2023-02-03T09:35:32.516Z,7.19
2023-02-03T09:36:35.227Z,7.63
2023-02-03T09:37:36.960Z,7.50
2023-02-03T09:38:39.820Z,7.59
2023-02-03T09:39:41.557Z,6.84
2023-02-03T09:40:43.592Z,7.49
2023-02-03T09:42:03.924Z,7.51
2023-02-03T09:43:35.477Z,7.52
2023-02-03T09:44:46.831Z,7.53
2023-02-03T09:45:49.121Z,6.97
2023-02-03T09:47:00.621Z,7.64
2023-02-03T09:48:24.703Z,7.65
2023-02-03T09:49:34.735Z,7.49
2023-02-03T09:50:38.139Z,7.35
2023-02-03T09:51:50.707Z,7.55
2023-02-03T09:52:53.435Z,7.04
2023-02-03T09:54:17.975Z,7.51
2023-02-03T09:55:41.044Z,7.45
2023-02-03T09:56:52.375Z,6.68
2023-02-03T09:58:12.649Z,6.85
2023-02-03T09:59:14.351Z,7.38
2023-02-03T10:00:31.125Z,7.37
2023-02-03T10:01:48.170Z,7.62
2023-02-03T10:03:28.253Z,7.67
2023-02-03T10:04:43.403Z,7.03
2023-02-03T10:06:04.026Z,7.74
2023-02-03T10:07:20.287Z,7.44
2023-02-03T10:08:35.420Z,7.73
2023-02-03T10:09:46.821Z,7.73
2023-02-03T10:11:09.952Z,7.45
2023-02-03T10:12:32.547Z,7.79
2023-02-03T10:14:08.499Z,7.88
2023-02-03T10:15:40.051Z,7.88
2023-02-03T10:16:53.360Z,7.88
2023-02-03T10:18:13.088Z,7.85
2023-02-03T10:19:23.266Z,7.95
2023-02-03T10:20:47.424Z,7.65
2023-02-03T10:21:57.565Z,7.48
2023-02-03T10:23:05.313Z,7.52
2023-02-03T10:24:27.327Z,7.51
2023-02-03T10:25:38.196Z,7.17
2023-02-03T10:26:41.058Z,7.63
2023-02-03T10:27:44.317Z,7.63
2023-02-03T10:28:53.733Z,7.61
2023-02-03T10:30:05.396Z,7.65
2023-02-03T10:31:17.358Z,7.06
2023-02-03T10:32:19.196Z,7.64
2023-02-03T10:33:22.159Z,7.18
2023-02-03T10:34:25.375Z,7.51
2023-02-03T10:35:39.613Z,7.25
2023-02-03T10:37:13.898Z,7.66
2023-02-03T10:38:24.538Z,7.68
2023-02-03T10:39:44.293Z,7.72
2023-02-03T10:40:49.324Z,7.71
2023-02-03T10:41:53.957Z,7.65
2023-02-03T10:43:14.921Z,7.74
2023-02-03T10:44:18.181Z,7.07
2023-02-03T10:45:20.952Z,6.86
2023-02-03T10:46:31.997Z,6.85
2023-02-03T10:47:40.756Z,6.57
2023-02-03T10:48:42.829Z,7.45
2023-02-03T10:49:46.095Z,6.23
2023-02-03T10:50:52.276Z,7.31
2023-02-03T10:51:59.198Z,6.89
2023-02-03T10:53:23.292Z,7.57
2023-02-03T10:54:32.393Z,7.71
2023-02-03T10:55:35.644Z,7.78
2023-02-03T10:56:41.759Z,7.38
2023-02-03T10:57:43.873Z,7.79
2023-02-03T10:58:58.687Z,7.77
2023-02-03T11:00:22.580Z,7.78
2023-02-03T11:01:47.136Z,7.82
2023-02-03T11:03:01.833Z,7.81
2023-02-03T11:04:05.549Z,6.38
2023-02-03T11:05:16.551Z,7.80
2023-02-03T11:06:18.305Z,7.10
2023-02-03T11:07:27.454Z,7.60
2023-02-03T11:08:31.118Z,7.20
2023-02-03T11:09:42.862Z,7.88
2023-02-03T11:10:45.384Z,7.57
2023-02-03T11:11:47.137Z,7.74
2023-02-03T11:12:48.760Z,7.18
2023-02-03T11:14:16.486Z,7.05
2023-02-03T11:15:18.112Z,7.22
2023-02-03T11:16:20.874Z,7.95
2023-02-03T11:17:32.645Z,7.97
2023-02-03T11:18:54.508Z,7.76
2023-02-03T11:20:14.958Z,7.30
2023-02-03T11:21:20.556Z,7.74
2023-02-03T11:22:34.126Z,8.11
2023-02-03T11:23:36.520Z,7.52
2023-02-03T11:24:41.405Z,7.93
2023-02-03T11:25:44.342Z,7.84
2023-02-03T11:26:49.482Z,7.49
2023-02-03T11:27:51.331Z,8.04
2023-02-03T11:28:56.741Z,7.86
2023-02-03T11:30:30.746Z,8.10
2023-02-03T11:31:35.727Z,8.13
2023-02-03T11:32:44.568Z,8.13
2023-02-03T11:33:56.983Z,7.51
2023-02-03T11:35:02.320Z,8.04
2023-02-03T11:36:05.598Z,8.13
2023-02-03T11:37:37.402Z,8.26
2023-02-03T11:38:42.465Z,7.96
2023-02-03T11:39:44.290Z,7.64
2023-02-03T11:40:46.142Z,8.37
2023-02-03T11:41:51.440Z,8.40
2023-02-03T11:42:53.159Z,8.44
2023-02-03T11:43:55.877Z,8.06
2023-02-03T11:45:25.617Z,8.53
2023-02-03T11:46:27.912Z,8.32
2023-02-03T11:47:29.617Z,8.60
2023-02-03T11:48:36.354Z,7.78
2023-02-03T11:49:47.528Z,8.58
2023-02-03T11:51:13.426Z,8.21
2023-02-03T11:52:32.910Z,8.55
2023-02-03T11:53:47.795Z,8.42
2023-02-03T11:55:22.483Z,8.44
2023-02-03T11:57:10.594Z,8.35
2023-02-03T11:59:00.718Z,8.36
2023-02-03T12:00:14.013Z,8.33
2023-02-03T12:01:38.847Z,8.26
2023-02-03T12:03:12.745Z,8.27
2023-02-03T12:04:48.432Z,8.28
2023-02-03T12:08:12.524Z,8.42
2023-02-03T12:09:36.246Z,6.93
2023-02-03T12:11:12.584Z,7.90
2023-02-03T12:12:36.648Z,8.57
2023-02-03T12:13:57.037Z,8.52
2023-02-03T12:15:45.135Z,8.68
2023-02-03T12:17:24.136Z,7.50
2023-02-03T12:19:02.659Z,8.59
2023-02-03T12:20:30.566Z,8.61
2023-02-03T12:21:48.210Z,8.29
2023-02-03T12:22:58.842Z,8.86
2023-02-03T12:24:13.191Z,8.56
2023-02-03T12:25:31.710Z,8.68
2023-02-03T12:26:39.135Z,8.84
2023-02-03T12:28:05.656Z,8.51
2023-02-03T12:29:19.206Z,8.50
2023-02-03T12:30:39.701Z,7.69
2023-02-03T12:31:59.719Z,8.66
2023-02-03T12:33:10.771Z,8.35
2023-02-03T12:34:24.962Z,8.76
2023-02-03T12:35:36.849Z,8.73
2023-02-03T12:36:42.748Z,8.88
2023-02-03T12:37:55.563Z,8.78
2023-02-03T12:39:10.830Z,9.13
2023-02-03T12:40:30.501Z,8.14
2023-02-03T12:41:38.477Z,9.18
2023-02-03T12:42:54.705Z,8.99
2023-02-03T12:44:05.058Z,8.85
2023-02-03T12:45:15.381Z,9.24
2023-02-03T12:46:23.148Z,9.15
2023-02-03T12:47:33.919Z,8.98
2023-02-03T12:48:46.689Z,8.90
2023-02-03T12:49:58.599Z,8.81
2023-02-03T12:51:06.466Z,8.82
2023-02-03T12:52:34.371Z,8.75
2023-02-03T12:53:45.928Z,8.47
2023-02-03T12:55:01.566Z,8.49
2023-02-03T12:56:18.212Z,8.71
2023-02-03T12:57:44.959Z,8.73
2023-02-03T12:58:54.790Z,8.66
2023-02-03T13:00:21.812Z,8.02
2023-02-03T13:01:33.601Z,8.56
2023-02-03T13:02:49.174Z,8.16
2023-02-03T13:04:06.040Z,7.75
2023-02-03T13:05:38.456Z,8.06
2023-02-03T13:07:08.108Z,8.58
2023-02-03T13:08:18.918Z,7.32
2023-02-03T13:09:31.203Z,7.94
2023-02-03T13:10:45.866Z,8.17
2023-02-03T13:12:31.230Z,7.14
2023-02-03T13:13:47.761Z,8.56
2023-02-03T13:15:05.713Z,8.54
2023-02-03T13:16:12.243Z,8.24
2023-02-03T13:17:39.769Z,8.51
2023-02-03T13:18:47.988Z,8.29
2023-02-03T13:19:58.465Z,8.22
2023-02-03T13:21:00.397Z,8.43
2023-02-03T13:22:02.031Z,7.83
2023-02-03T13:23:13.837Z,8.66
2023-02-03T13:24:16.293Z,7.84
2023-02-03T13:25:23.145Z,8.74
2023-02-03T13:26:43.275Z,8.23
2023-02-03T13:27:48.318Z,8.83
2023-02-03T13:29:17.661Z,8.85
2023-02-03T13:31:07.796Z,8.93
2023-02-03T13:32:34.516Z,8.77
2023-02-03T13:33:55.564Z,8.95
2023-02-03T13:35:24.483Z,8.67
2023-02-03T13:36:29.713Z,8.66
2023-02-03T13:38:09.475Z,8.07
2023-02-03T13:39:49.592Z,8.98
2023-02-03T13:40:51.405Z,8.98
2023-02-03T13:42:01.077Z,8.99
2023-02-03T13:43:23.004Z,8.82
2023-02-03T13:44:35.737Z,8.25
2023-02-03T13:45:42.091Z,8.56
2023-02-03T13:46:48.773Z,8.32
2023-02-03T13:47:56.974Z,8.90
2023-02-03T13:49:02.801Z,8.41
2023-02-03T13:50:11.725Z,8.42
2023-02-03T13:51:22.609Z,8.58
2023-02-03T13:52:56.306Z,9.03
2023-02-03T13:54:03.226Z,8.46
2023-02-03T13:55:06.511Z,8.44
2023-02-03T13:56:25.024Z,7.58
2023-02-03T13:57:36.330Z,7.88
2023-02-03T13:58:45.692Z,8.01
2023-02-03T13:59:48.532Z,8.19
2023-02-03T14:00:59.827Z,8.27
2023-02-03T14:02:20.069Z,8.85
2023-02-03T14:03:24.675Z,8.82
2023-02-03T14:04:26.428Z,8.85
2023-02-03T14:06:01.337Z,8.91
2023-02-03T14:07:06.220Z,8.82
2023-02-03T14:08:31.800Z,8.90
2023-02-03T14:09:36.465Z,8.90
2023-02-03T14:10:38.189Z,8.60
2023-02-03T14:11:40.651Z,8.21
2023-02-03T14:12:51.001Z,8.88
2023-02-03T14:13:55.310Z,7.86
2023-02-03T14:15:06.767Z,8.27
2023-02-03T14:16:36.014Z,8.75
2023-02-03T14:17:38.631Z,8.72
2023-02-03T14:18:51.085Z,8.44
2023-02-03T14:19:53.605Z,8.31
2023-02-03T14:21:09.085Z,8.31
2023-02-03T14:22:17.637Z,8.33
2023-02-03T14:23:31.086Z,8.65
2023-02-03T14:24:34.986Z,7.96
2023-02-03T14:25:48.987Z,8.67
2023-02-03T14:27:01.365Z,8.72
2023-02-03T14:28:14.894Z,8.77
2023-02-03T14:29:28.129Z,8.87
2023-02-03T14:30:29.996Z,8.70
2023-02-03T14:31:32.750Z,8.81
2023-02-03T14:32:50.734Z,8.45
2023-02-03T14:34:08.021Z,8.61
2023-02-03T14:35:22.426Z,8.70
2023-02-03T14:36:40.528Z,8.83
2023-02-03T14:37:56.028Z,8.68
2023-02-03T14:39:01.602Z,8.91
2023-02-03T14:40:17.798Z,8.89
2023-02-03T14:41:39.676Z,8.89
2023-02-03T14:43:11.698Z,8.92
2023-02-03T14:44:34.037Z,8.93
2023-02-03T14:45:54.172Z,8.87
2023-02-03T14:47:14.698Z,8.89
2023-02-03T14:48:33.308Z,8.92
2023-02-03T14:49:58.881Z,8.68
2023-02-03T14:51:34.675Z,8.90
2023-02-03T14:52:47.531Z,8.81
2023-02-03T14:54:46.817Z,8.93
2023-02-03T14:55:58.864Z,8.22
2023-02-03T14:57:19.820Z,8.98
2023-02-03T14:58:38.446Z,8.70
2023-02-03T14:59:46.102Z,7.80